Time;durP1;ratioP1;P1;durP2;ratioP2;P2;SDS_P1;SDS_P2;PMS_P1;PMS_P2;Temp;Humidity;BMP_temperature;BMP_pressure;BME280_temperature;BME280_humidity;BME280_pressure;Samples;Min_cycle;Max_cycle;Signal;HPM_P1;HPM_P2
2022/09/30 00:01:31;;;;;;;30.95;19.00;;;;;;;9.75;100.00;100419.53;5077976;28;20078;-75
2022/09/30 00:03:57;;;;;;;30.17;16.73;;;;;;;9.88;100.00;100417.19;5081768;28;20012;-75
2022/09/30 00:06:28;;;;;;;38.28;19.67;;;;;;;9.79;100.00;100418.19;5088765;28;20024;-75
2022/09/30 00:08:54;;;;;;;31.90;19.23;;;;;;;9.57;100.00;100418.78;5085476;28;20015;-74
2022/09/30 00:11:24;;;;;;;37.67;20.17;;;;;;;9.58;100.00;100420.47;5086534;28;20012;-74
2022/09/30 00:13:51;;;;;;;30.55;19.52;;;;;;;9.71;100.00;100421.69;5082575;28;20028;-76
2022/09/30 00:16:17;;;;;;;22.30;14.93;;;;;;;9.84;100.00;100426.63;5089495;28;20028;-76
2022/09/30 00:18:43;;;;;;;30.27;19.17;;;;;;;9.74;100.00;100420.53;5076765;28;20020;-76
2022/09/30 00:21:10;;;;;;;32.72;19.50;;;;;;;9.75;100.00;100428.47;5076204;28;20050;-76
2022/09/30 00:23:37;;;;;;;36.08;19.83;;;;;;;9.60;100.00;100413.91;5086361;28;20045;-76
2022/09/30 00:26:06;;;;;;;40.25;22.23;;;;;;;9.60;100.00;100419.31;5079966;28;20111;-76
2022/09/30 00:28:32;;;;;;;31.75;19.23;;;;;;;9.56;100.00;100419.78;5079198;28;20020;-76
2022/09/30 00:30:59;;;;;;;26.13;15.80;;;;;;;9.66;100.00;100413.25;5095178;28;20376;-76
2022/09/30 00:33:25;;;;;;;31.80;15.32;;;;;;;9.72;100.00;100423.41;5087815;28;20032;-76
2022/09/30 00:35:50;;;;;;;33.78;16.35;;;;;;;9.86;100.00;100419.22;5090503;28;20020;-76
2022/09/30 00:38:15;;;;;;;27.10;15.20;;;;;;;9.79;100.00;100423.59;5097992;22;20040;-73
2022/09/30 00:40:41;;;;;;;33.33;18.40;;;;;;;9.75;100.00;100427.63;5081744;28;20031;-74
2022/09/30 00:43:16;;;;;;;26.58;17.13;;;;;;;9.74;100.00;100431.34;5080841;28;20529;-73
2022/09/30 00:45:58;;;;;;;24.30;14.25;;;;;;;9.81;100.00;100429.69;5081435;28;20035;-74
2022/09/30 00:48:32;;;;;;;27.63;17.23;;;;;;;9.86;100.00;100430.03;5080835;28;20069;-73
2022/09/30 00:51:01;;;;;;;27.90;16.70;;;;;;;9.82;100.00;100428.66;5080763;28;20020;-73
2022/09/30 00:53:35;;;;;;;23.70;14.80;;;;;;;9.89;100.00;100423.44;5098883;28;20020;-73
2022/09/30 00:56:05;;;;;;;25.90;15.57;;;;;;;10.01;100.00;100430.25;5081058;28;20022;-73
2022/09/30 00:58:36;;;;;;;21.38;14.07;;;;;;;10.07;100.00;100433.13;5098473;28;20475;-73
2022/09/30 01:01:02;;;;;;;22.40;12.48;;;;;;;10.14;100.00;100432.47;5080262;28;20074;-73
2022/09/30 01:03:35;;;;;;;21.15;12.95;;;;;;;10.13;100.00;100436.19;5080965;28;20055;-73
2022/09/30 01:06:01;;;;;;;28.02;13.95;;;;;;;9.90;100.00;100436.78;5080406;28;20069;-73
2022/09/30 01:08:29;;;;;;;25.63;13.98;;;;;;;9.96;100.00;100436.13;5079618;28;20024;-74
2022/09/30 01:10:55;;;;;;;25.70;14.70;;;;;;;9.98;100.00;100423.31;5097796;28;20083;-73
2022/09/30 01:13:23;;;;;;;20.20;13.55;;;;;;;9.73;100.00;100424.25;5072704;28;20059;-73
2022/09/30 01:16:07;;;;;;;25.08;14.90;;;;;;;9.83;100.00;100424.09;5077895;28;20031;-73
2022/09/30 01:19:26;;;;;;;29.33;17.00;;;;;;;9.65;100.00;100424.19;5077922;28;20055;-73
2022/09/30 01:22:28;;;;;;;33.92;19.90;;;;;;;9.50;100.00;100429.38;4975998;28;20026;-73
2022/09/30 01:25:16;;;;;;;25.30;15.80;;;;;;;9.35;100.00;100431.00;4979742;28;20026;-73
2022/09/30 01:28:00;;;;;;;32.88;20.00;;;;;;;9.32;100.00;100432.16;5075017;28;20062;-73
2022/09/30 01:30:52;;;;;;;32.47;17.67;;;;;;;9.30;100.00;100439.59;5059801;28;20021;-73
2022/09/30 01:33:36;;;;;;;;;;;;;;;9.39;100.00;100438.66;5078257;28;20032;-73
2022/09/30 01:36:16;;;;;;;30.38;18.50;;;;;;;9.31;100.00;100445.84;5077449;28;19931;-73
2022/09/30 01:39:00;;;;;;;33.50;18.70;;;;;;;9.25;100.00;100441.91;5076756;28;20082;-73
2022/09/30 01:41:46;;;;;;;38.08;22.35;;;;;;;9.14;100.00;100453.00;5058915;28;20060;-73
2022/09/30 01:44:36;;;;;;;34.88;21.08;;;;;;;9.06;100.00;100459.19;5009173;28;20060;-73
2022/09/30 01:47:25;;;;;;;49.75;26.48;;;;;;;9.02;100.00;100451.56;5059200;28;20060;-73
2022/09/30 01:50:22;;;;;;;49.33;25.98;;;;;;;8.90;100.00;100451.84;5075921;28;20481;-73
2022/09/30 01:53:09;;;;;;;59.78;30.02;;;;;;;8.80;100.00;100456.50;5075865;28;20024;-72
2022/09/30 01:55:56;;;;;;;61.30;28.17;;;;;;;8.71;100.00;100454.72;5058907;28;20020;-73
2022/09/30 01:58:41;;;;;;;60.45;29.02;;;;;;;8.67;100.00;100447.94;5058226;28;20024;-73
2022/09/30 02:01:15;;;;;;;51.25;27.60;;;;;;;8.67;100.00;100458.72;5057833;28;20067;-73
2022/09/30 02:03:49;;;;;;;53.03;28.55;;;;;;;8.67;100.00;100464.13;5058150;28;20031;-73
2022/09/30 02:06:22;;;;;;;44.25;24.67;;;;;;;8.65;100.00;100464.28;5058557;28;20024;-73
2022/09/30 02:09:02;;;;;;;47.10;26.27;;;;;;;8.60;100.00;100465.75;5058189;28;20020;-73
2022/09/30 02:11:31;;;;;;;48.83;27.20;;;;;;;8.62;100.00;100471.88;5057818;28;20054;-73
2022/09/30 02:14:20;;;;;;;55.55;29.27;;;;;;;8.38;100.00;100465.22;5057832;28;20033;-74
2022/09/30 02:16:58;;;;;;;60.03;31.25;;;;;;;8.39;100.00;100472.31;5075779;28;20024;-73
2022/09/30 02:19:35;;;;;;;60.33;32.65;;;;;;;8.42;100.00;100477.41;5058503;28;20077;-73
2022/09/30 02:22:07;;;;;;;59.25;30.23;;;;;;;8.47;100.00;100473.38;5058134;28;20040;-73
2022/09/30 02:24:37;;;;;;;61.78;33.38;;;;;;;8.39;100.00;100483.09;5058493;28;20032;-73
2022/09/30 02:27:10;;;;;;;75.38;35.30;;;;;;;8.45;100.00;100480.81;5074777;28;20035;-73
2022/09/30 02:29:41;;;;;;;49.90;26.58;;;;;;;8.46;100.00;100477.09;5075232;28;20028;-73
2022/09/30 02:32:23;;;;;;;57.03;32.25;;;;;;;8.53;100.00;100480.88;5058060;28;20020;-73
2022/09/30 02:34:53;;;;;;;71.35;35.28;;;;;;;8.46;100.00;100482.50;5058268;28;20411;-73
2022/09/30 02:37:33;;;;;;;55.63;29.27;;;;;;;8.50;100.00;100489.28;5058400;28;20064;-73
2022/09/30 02:40:16;;;;;;;56.25;31.50;;;;;;;8.44;100.00;100496.13;5076403;28;20017;-73
2022/09/30 02:42:44;;;;;;;51.17;29.25;;;;;;;8.48;100.00;100489.44;5057861;28;20023;-73
2022/09/30 02:45:15;;;;;;;67.63;34.53;;;;;;;8.50;100.00;100490.13;5057519;28;20078;-73
2022/09/30 02:48:05;;;;;;;55.45;30.20;;;;;;;8.46;100.00;100498.69;5058271;28;20025;-73
2022/09/30 02:50:34;;;;;;;52.28;29.88;;;;;;;8.56;100.00;100494.06;5057655;28;20039;-73
2022/09/30 02:53:17;;;;;;;57.63;30.35;;;;;;;8.71;100.00;100497.91;5058247;28;20033;-73
2022/09/30 02:55:52;;;;;;;52.97;29.92;;;;;;;8.66;100.00;100501.06;5058388;28;20028;-73
2022/09/30 02:58:20;;;;;;;58.17;30.52;;;;;;;8.56;100.00;100496.75;5057529;28;20028;-73
2022/09/30 03:00:47;;;;;;;80.63;39.75;;;;;;;8.50;100.00;100505.47;5057628;28;20024;-73
2022/09/30 03:03:27;;;;;;;69.10;34.00;;;;;;;8.51;100.00;100496.38;5057588;28;20040;-73
2022/09/30 03:05:52;;;;;;;61.38;31.60;;;;;;;8.52;100.00;100498.06;5057798;28;20032;-73
2022/09/30 03:08:18;;;;;;;56.63;31.17;;;;;;;8.52;100.00;100495.38;5075682;28;20077;-73
2022/09/30 03:10:45;;;;;;;67.78;33.95;;;;;;;8.60;100.00;100492.72;5057673;28;20059;-73
2022/09/30 03:13:29;;;;;;;54.53;30.80;;;;;;;8.66;100.00;100492.13;5076003;28;20035;-73
2022/09/30 03:16:04;;;;;;;45.50;27.58;;;;;;;8.76;100.00;100495.59;5058376;28;20024;-73
2022/09/30 03:18:52;;;;;;;55.28;30.45;;;;;;;8.84;100.00;100492.94;5058092;28;20110;-73
2022/09/30 03:21:54;;;;;;;45.05;26.17;;;;;;;9.13;100.00;100497.25;5075861;28;20028;-73
2022/09/30 03:24:38;;;;;;;61.88;30.35;;;;;;;9.21;100.00;100500.00;5057461;28;20032;-73
2022/09/30 03:27:11;;;;;;;57.92;29.88;;;;;;;9.17;100.00;100514.81;5057451;28;20028;-73
2022/09/30 03:29:44;;;;;;;46.15;26.58;;;;;;;9.30;100.00;100514.38;5058421;28;20032;-73
2022/09/30 03:32:31;;;;;;;51.03;29.05;;;;;;;9.16;100.00;100513.13;5057917;28;20158;-73
2022/09/30 03:35:38;;;;;;;50.65;28.33;;;;;;;9.22;100.00;100518.72;5057943;28;20096;-73
2022/09/30 03:38:14;;;;;;;56.92;30.92;;;;;;;9.18;100.00;100511.09;5058386;28;20028;-73
2022/09/30 03:41:05;;;;;;;41.15;26.23;;;;;;;9.10;100.00;100514.59;5060935;28;20025;-73
2022/09/30 03:43:42;;;;;;;48.90;25.92;;;;;;;9.09;100.00;100512.06;5061453;28;20111;-73
2022/09/30 03:46:21;;;;;;;51.53;29.77;;;;;;;9.17;100.00;100509.41;5060849;28;20047;-73
2022/09/30 03:48:51;;;;;;;43.65;26.77;;;;;;;9.31;100.00;100516.06;5060735;28;20047;-73
2022/09/30 03:51:16;;;;;;;46.22;26.70;;;;;;;9.33;100.00;100520.34;5060711;28;20039;-73
2022/09/30 03:53:45;;;;;;;40.47;24.00;;;;;;;9.34;100.00;100519.31;5061136;28;20033;-73
2022/09/30 03:56:11;;;;;;;61.85;32.20;;;;;;;9.33;100.00;100520.34;5060505;28;20028;-73
2022/09/30 03:58:41;;;;;;;40.58;24.60;;;;;;;9.37;100.00;100527.09;5078951;28;20637;-73
2022/09/30 04:01:06;;;;;;;42.28;24.48;;;;;;;9.19;100.00;100526.28;5060484;28;20024;-73
2022/09/30 04:03:31;;;;;;;44.15;21.70;;;;;;;9.30;100.00;100536.00;5060652;28;20030;-73
2022/09/30 04:05:57;;;;;;;56.90;29.67;;;;;;;9.26;100.00;100532.78;5060110;28;20032;-73
2022/09/30 04:08:22;;;;;;;73.72;35.53;;;;;;;9.07;100.00;100539.22;5059820;28;20066;-73
2022/09/30 04:10:48;;;;;;;60.70;30.77;;;;;;;8.88;100.00;100542.94;5077470;28;20381;-73
2022/09/30 04:13:13;;;;;;;67.97;33.55;;;;;;;8.67;100.00;100539.69;5057793;28;20020;-73
2022/09/30 04:15:40;;;;;;;71.85;36.88;;;;;;;8.55;100.00;100535.53;5077496;28;20024;-73
2022/09/30 04:18:05;;;;;;;67.50;36.30;;;;;;;8.51;100.00;100540.38;5059731;28;20052;-73
2022/09/30 04:20:32;;;;;;;72.60;36.85;;;;;;;8.48;100.00;100551.50;5059140;28;20032;-73
2022/09/30 04:22:58;;;;;;;72.30;35.88;;;;;;;8.37;100.00;100555.25;5077427;28;20054;-73
2022/09/30 04:25:25;;;;;;;82.78;41.25;;;;;;;8.31;100.00;100555.81;5059157;28;20017;-73
2022/09/30 04:27:51;;;;;;;80.68;39.58;;;;;;;8.38;100.00;100551.56;5059780;28;20089;-73
2022/09/30 04:30:17;;;;;;;89.60;43.15;;;;;;;8.42;100.00;100552.94;5059653;28;20684;-73
2022/09/30 04:32:46;;;;;;;81.60;37.22;;;;;;;8.43;100.00;100554.66;5059661;28;20028;-73
2022/09/30 04:35:12;;;;;;;74.95;38.05;;;;;;;8.55;100.00;100562.53;5058643;28;20020;-73
2022/09/30 04:37:45;;;;;;;61.50;31.98;;;;;;;8.64;100.00;100567.00;5059608;28;20055;-75
2022/09/30 04:40:12;;;;;;;76.60;38.13;;;;;;;8.57;100.00;100560.50;5059242;28;20020;-73
2022/09/30 04:42:39;;;;;;;80.85;37.13;;;;;;;8.61;100.00;100562.75;5059286;28;20070;-73
2022/09/30 04:45:06;;;;;;;75.07;37.97;;;;;;;8.53;100.00;100569.91;5058538;28;20051;-73
2022/09/30 04:47:31;;;;;;;70.07;37.03;;;;;;;8.59;100.00;100569.28;5059009;28;20030;-72
2022/09/30 04:49:57;;;;;;;83.68;42.22;;;;;;;8.46;100.00;100569.66;5057454;28;20052;-73
2022/09/30 04:52:22;;;;;;;78.85;38.00;;;;;;;8.45;100.00;100561.72;5058657;28;20127;-72
2022/09/30 04:54:48;;;;;;;74.00;37.08;;;;;;;8.56;100.00;100575.03;5059028;28;20028;-73
2022/09/30 04:57:13;;;;;;;77.43;36.80;;;;;;;8.71;100.00;100584.28;5058391;28;20035;-72
2022/09/30 04:59:39;;;;;;;64.40;33.88;;;;;;;8.74;100.00;100588.50;5058143;28;20119;-73
2022/09/30 05:02:05;;;;;;;65.70;34.20;;;;;;;8.57;100.00;100590.19;5058572;28;20036;-73
2022/09/30 05:04:32;;;;;;;76.68;36.67;;;;;;;8.63;100.00;100593.13;5058790;28;20031;-73
2022/09/30 05:06:59;;;;;;;47.08;26.95;;;;;;;8.73;100.00;100587.66;5058842;28;20051;-73
2022/09/30 05:09:25;;;;;;;59.67;31.15;;;;;;;8.82;100.00;100592.16;5059113;28;20090;-73
2022/09/30 05:11:50;;;;;;;62.03;32.47;;;;;;;8.87;100.00;100594.41;5059373;28;20024;-73
2022/09/30 05:14:16;;;;;;;76.57;35.60;;;;;;;8.70;100.00;100594.22;5058514;28;20487;-73
2022/09/30 05:16:42;;;;;;;70.10;32.60;;;;;;;8.66;100.00;100600.06;5058259;28;20025;-73
2022/09/30 05:19:07;;;;;;;49.72;28.23;;;;;;;8.71;100.00;100603.16;5058305;28;20097;-73
2022/09/30 05:21:32;;;;;;;56.38;29.92;;;;;;;8.66;100.00;100608.16;5075928;28;20036;-74
2022/09/30 05:23:58;;;;;;;58.33;29.40;;;;;;;8.67;100.00;100608.03;5058312;28;20052;-74
2022/09/30 05:26:23;;;;;;;65.57;32.13;;;;;;;8.69;100.00;100607.88;5058049;28;20020;-74
2022/09/30 05:28:49;;;;;;;50.83;26.92;;;;;;;8.52;100.00;100606.00;5057382;28;20021;-74
2022/09/30 05:31:14;;;;;;;58.47;31.67;;;;;;;8.65;100.00;100611.88;5056879;28;20158;-74
2022/09/30 05:33:40;;;;;;;71.13;36.65;;;;;;;8.64;100.00;100604.78;5056739;28;20125;-74
2022/09/30 05:36:07;;;;;;;69.47;35.33;;;;;;;8.62;100.00;100606.78;5057537;28;20032;-74
2022/09/30 05:38:33;;;;;;;83.97;36.83;;;;;;;8.61;100.00;100613.19;5056720;28;20021;-73
2022/09/30 05:41:07;;;;;;;86.65;38.88;;;;;;;8.49;100.00;100617.94;5057124;28;20070;-74
2022/09/30 05:43:32;;;;;;;80.40;38.65;;;;;;;8.28;100.00;100620.88;5056906;28;20089;-74
2022/09/30 05:45:58;;;;;;;66.60;34.88;;;;;;;8.18;100.00;100620.06;5057247;28;20028;-74
2022/09/30 05:48:24;;;;;;;86.55;41.50;;;;;;;8.20;100.00;100622.59;5057261;28;20059;-74
2022/09/30 05:50:54;;;;;;;81.53;39.90;;;;;;;8.27;100.00;100629.94;5075605;28;20020;-73
2022/09/30 05:53:20;;;;;;;98.63;44.42;;;;;;;8.18;100.00;100630.00;5056977;28;20025;-74
2022/09/30 05:55:46;;;;;;;83.72;42.20;;;;;;;8.17;100.00;100626.47;5056722;28;20027;-74
2022/09/30 05:58:13;;;;;;;63.83;33.40;;;;;;;8.03;100.00;100637.72;5056754;28;20545;-74
2022/09/30 06:00:41;;;;;;;89.45;40.17;;;;;;;8.18;100.00;100641.63;5056539;28;20021;-74
2022/09/30 06:03:06;;;;;;;85.68;37.80;;;;;;;8.06;100.00;100632.03;5056476;28;20024;-74
2022/09/30 06:05:32;;;;;;;89.40;43.20;;;;;;;8.04;100.00;100640.28;5056367;28;20044;-74
2022/09/30 06:07:57;;;;;;;76.93;34.90;;;;;;;8.03;100.00;100632.34;5073994;28;20066;-74
2022/09/30 06:10:23;;;;;;;77.90;41.00;;;;;;;8.09;100.00;100631.75;5073598;28;20052;-74
2022/09/30 06:12:48;;;;;;;74.75;38.80;;;;;;;8.18;100.00;100622.75;5055982;28;20027;-74
2022/09/30 06:15:14;;;;;;;62.58;35.53;;;;;;;8.20;100.00;100634.22;5055890;28;20130;-74
2022/09/30 06:17:41;;;;;;;68.45;39.22;;;;;;;8.28;100.00;100630.78;5056153;28;20024;-74
2022/09/30 06:20:10;;;;;;;67.00;37.20;;;;;;;8.13;100.00;100639.38;5055790;28;20063;-73
2022/09/30 06:22:36;;;;;;;66.00;37.53;;;;;;;8.31;100.00;100642.13;5072759;28;20025;-74
2022/09/30 06:25:04;;;;;;;60.53;35.42;;;;;;;8.42;100.00;100639.28;5054824;28;20107;-74
2022/09/30 06:27:32;;;;;;;53.95;31.48;;;;;;;8.49;100.00;100644.09;5054824;28;20052;-74
2022/09/30 06:29:57;;;;;;;61.58;35.97;;;;;;;8.62;100.00;100647.28;5055342;28;20026;-74
2022/09/30 06:32:24;;;;;;;52.67;32.55;;;;;;;8.65;100.00;100645.09;5054601;28;20115;-73
2022/09/30 06:34:50;;;;;;;44.92;25.67;;;;;;;8.74;100.00;100654.16;5054043;28;20370;-73
2022/09/30 06:37:17;;;;;;;49.08;31.15;;;;;;;8.94;100.00;100644.09;5053841;28;20081;-72
2022/09/30 06:39:43;;;;;;;55.25;32.22;;;;;;;8.75;100.00;100650.47;5045729;28;20043;-72
2022/09/30 06:42:10;;;;;;;45.85;26.88;;;;;;;8.84;100.00;100646.84;5050415;28;20033;-72
2022/09/30 06:44:35;;;;;;;45.15;29.15;;;;;;;8.95;100.00;100646.63;5054479;28;20110;-72
2022/09/30 06:47:01;;;;;;;60.30;32.88;;;;;;;8.97;100.00;100644.59;5054460;28;20020;-72
2022/09/30 06:49:27;;;;;;;46.95;30.33;;;;;;;8.87;100.00;100643.84;5053487;28;20031;-71
2022/09/30 06:51:52;;;;;;;50.53;29.67;;;;;;;9.00;100.00;100653.38;5053715;28;20028;-70
2022/09/30 06:54:19;;;;;;;46.30;28.33;;;;;;;8.88;100.00;100650.94;5054175;28;20449;-72
2022/09/30 06:56:46;;;;;;;45.33;28.60;;;;;;;8.91;100.00;100650.63;5047893;28;20028;-71
2022/09/30 06:59:11;;;;;;;38.88;26.60;;;;;;;8.86;100.00;100652.91;5039209;28;20028;-71
2022/09/30 07:01:37;;;;;;;37.15;26.58;;;;;;;9.03;100.00;100653.09;5044304;28;20024;-72
2022/09/30 07:04:08;;;;;;;40.17;25.75;;;;;;;9.10;100.00;100659.59;5040583;28;20048;-71
2022/09/30 07:06:34;;;;;;;39.15;27.15;;;;;;;9.15;100.00;100651.88;5045350;28;20031;-71
2022/09/30 07:08:59;;;;;;;40.17;25.23;;;;;;;9.22;100.00;100658.34;5045691;28;20024;-71
2022/09/30 07:11:24;;;;;;;37.15;24.65;;;;;;;9.32;100.00;100658.25;5045715;28;20030;-72
2022/09/30 07:13:50;;;;;;;37.38;23.05;;;;;;;9.48;100.00;100667.38;5046329;28;20024;-73
2022/09/30 07:16:18;;;;;;;39.55;24.63;;;;;;;9.48;100.00;100672.78;5045675;28;20116;-73
2022/09/30 07:18:44;;;;;;;36.72;21.70;;;;;;;9.62;100.00;100665.09;5043414;28;20035;-72
2022/09/30 07:21:15;;;;;;;35.83;22.02;;;;;;;9.65;100.00;100673.75;5047355;28;20044;-72
2022/09/30 07:23:47;;;;;;;30.92;19.83;;;;;;;9.58;100.00;100674.53;5046388;28;20066;-71
2022/09/30 07:26:15;;;;;;;36.03;20.42;;;;;;;9.69;100.00;100671.56;5043660;28;20063;-73
2022/09/30 07:28:42;;;;;;;32.38;21.35;;;;;;;9.77;100.00;100674.31;5047689;28;20108;-73
2022/09/30 07:31:11;;;;;;;31.33;19.70;;;;;;;9.80;100.00;100679.44;5046878;28;20044;-73
2022/09/30 07:33:38;;;;;;;34.67;19.65;;;;;;;9.93;100.00;100673.63;5043853;28;20029;-72
2022/09/30 07:36:07;;;;;;;34.47;20.40;;;;;;;10.02;100.00;100667.25;5047003;28;20021;-72
2022/09/30 07:38:35;;;;;;;26.63;19.42;;;;;;;10.27;100.00;100660.13;5046000;28;20063;-73
2022/09/30 07:41:12;;;;;;;30.60;18.50;;;;;;;10.29;100.00;100668.94;5047550;28;20035;-72
2022/09/30 07:43:39;;;;;;;23.95;18.00;;;;;;;10.51;100.00;100673.78;5065289;28;20083;-73
2022/09/30 07:46:06;;;;;;;30.02;18.70;;;;;;;10.67;100.00;100672.16;5046588;28;20017;-73
2022/09/30 07:48:42;;;;;;;24.23;16.95;;;;;;;11.12;98.82;100672.59;5064188;28;20028;-72
2022/09/30 07:51:13;;;;;;;27.85;16.88;;;;;;;11.19;97.02;100671.94;5064684;28;20089;-71
2022/09/30 07:53:46;;;;;;;35.40;16.77;;;;;;;11.09;98.38;100672.97;5047000;28;20020;-72
2022/09/30 07:56:13;;;;;;;26.13;15.38;;;;;;;11.30;97.18;100675.19;5048107;28;20043;-72
2022/09/30 07:58:39;;;;;;;21.90;15.25;;;;;;;11.10;97.65;100674.66;5065064;28;20077;-72
2022/09/30 08:01:05;;;;;;;25.33;16.48;;;;;;;11.06;98.15;100689.53;5046980;28;20036;-73
2022/09/30 08:03:33;;;;;;;24.10;15.75;;;;;;;10.95;99.03;100689.84;5047494;28;20052;-73
2022/09/30 08:06:06;;;;;;;21.10;15.15;;;;;;;11.43;97.42;100690.13;5046850;28;20482;-73
2022/09/30 08:08:32;;;;;;;32.28;15.23;;;;;;;11.30;96.61;100679.75;5046906;28;20020;-73
2022/09/30 08:10:59;;;;;;;23.33;14.18;;;;;;;11.37;96.56;100694.34;5047901;28;20028;-73
2022/09/30 08:13:24;;;;;;;24.60;13.55;;;;;;;11.60;96.06;100687.22;5047251;28;20082;-74
2022/09/30 08:15:49;;;;;;;21.08;13.45;;;;;;;11.81;95.97;100694.91;5047528;28;20032;-71
2022/09/30 08:18:15;;;;;;;17.38;12.73;;;;;;;11.94;93.63;100702.50;5048273;28;20503;-71
2022/09/30 08:20:40;;;;;;;20.90;11.73;;;;;;;11.89;95.17;100692.16;5046962;28;20029;-72
2022/09/30 08:23:05;;;;;;;19.05;11.52;;;;;;;12.13;94.80;100699.44;5048357;28;20493;-71
2022/09/30 08:25:31;;;;;;;19.17;10.65;;;;;;;12.09;94.02;100692.66;5068629;28;20024;-72
2022/09/30 08:27:56;;;;;;;18.27;11.50;;;;;;;12.29;94.53;100686.81;5050679;28;20031;-71
2022/09/30 08:30:22;;;;;;;16.73;12.05;;;;;;;12.38;92.28;100685.78;5070020;28;20063;-72
2022/09/30 08:32:47;;;;;;;15.00;11.50;;;;;;;12.51;91.70;100696.94;5051314;28;20077;-72
2022/09/30 08:35:12;;;;;;;18.40;10.93;;;;;;;12.56;91.73;100694.53;5051525;28;20027;-71
2022/09/30 08:37:38;;;;;;;24.13;11.20;;;;;;;12.55;93.00;100692.84;5069223;28;20056;-74
2022/09/30 08:40:04;;;;;;;21.80;11.07;;;;;;;12.62;91.71;100693.84;5049914;28;20024;-72
2022/09/30 08:43:26;;;;;;;16.08;11.68;;;;;;;12.76;91.98;100701.25;5051409;28;20024;-73
2022/09/30 08:45:58;;;;;;;29.90;11.32;;;;;;;12.92;91.35;100694.06;4987793;28;20064;-72
2022/09/30 08:48:36;;;;;;;17.63;9.65;;;;;;;13.34;91.22;100709.13;5051450;28;20028;-73
2022/09/30 08:51:23;;;;;;;14.20;8.15;;;;;;;13.20;88.16;100708.88;5066882;28;20103;-73
2022/09/30 08:53:49;;;;;;;15.82;7.90;;;;;;;12.80;89.30;100700.91;5050836;28;20040;-73
2022/09/30 08:56:28;;;;;;;15.23;9.02;;;;;;;13.13;88.82;100707.84;5069772;28;20024;-72
2022/09/30 08:58:58;;;;;;;23.25;9.25;;;;;;;13.21;90.18;100699.69;5051109;28;20108;-72
2022/09/30 09:01:36;;;;;;;14.35;7.72;;;;;;;13.28;89.60;100711.53;5069791;28;20024;-74
2022/09/30 09:04:04;;;;;;;10.07;6.75;;;;;;;13.35;89.10;100705.38;5051960;28;20115;-74
2022/09/30 09:06:59;;;;;;;11.77;6.47;;;;;;;13.72;87.71;100699.97;5068816;28;20052;-74
2022/09/30 09:09:43;;;;;;;10.18;4.97;;;;;;;13.95;83.85;100699.09;5027087;28;20450;-73
2022/09/30 09:12:42;;;;;;;12.82;3.80;;;;;;;14.24;82.26;100701.88;5058537;28;20036;-74
2022/09/30 09:15:43;;;;;;;6.97;4.20;;;;;;;14.39;83.35;100705.44;5069250;28;20036;-75
2022/09/30 09:18:26;;;;;;;5.57;2.83;;;;;;;14.55;81.12;100709.06;5005588;28;20097;-74
2022/09/30 09:21:06;;;;;;;10.93;2.67;;;;;;;13.81;83.57;100711.63;5045266;28;20037;-74
2022/09/30 09:23:32;;;;;;;5.90;2.20;;;;;;;14.11;80.16;100712.56;5051304;28;20538;-74
2022/09/30 09:25:58;;;;;;;5.35;1.85;;;;;;;14.23;81.23;100705.63;5050471;28;20032;-74
2022/09/30 09:28:35;;;;;;;2.33;1.67;;;;;;;14.52;79.63;100710.28;5050043;28;20024;-73
2022/09/30 09:31:02;;;;;;;3.53;1.75;;;;;;;14.43;80.20;100705.09;5050155;28;20016;-73
2022/09/30 09:33:30;;;;;;;4.43;1.83;;;;;;;14.58;78.18;100711.41;5050846;28;20481;-73
2022/09/30 09:36:22;;;;;;;4.60;2.00;;;;;;;14.75;79.19;100709.34;5049809;28;20145;-74
2022/09/30 09:38:57;;;;;;;9.30;2.15;;;;;;;14.86;77.83;100711.56;5057402;28;20029;-74
2022/09/30 09:41:49;;;;;;;5.53;2.15;;;;;;;14.62;77.30;100723.63;5050319;28;20093;-74
2022/09/30 09:44:32;;;;;;;2.92;2.10;;;;;;;14.87;77.07;100721.44;5012067;28;20028;-74
2022/09/30 09:47:04;;;;;;;7.93;1.85;;;;;;;14.80;78.20;100718.63;5049786;28;20028;-74
2022/09/30 09:49:30;;;;;;;5.53;1.88;;;;;;;14.56;79.23;100716.19;5067277;28;20035;-72
2022/09/30 09:52:14;;;;;;;5.32;1.90;;;;;;;14.40;79.69;100715.31;5050764;28;20021;-74
2022/09/30 09:54:55;;;;;;;5.03;2.00;;;;;;;14.43;78.69;100715.97;5068168;28;20032;-73
2022/09/30 09:57:24;;;;;;;4.45;2.30;;;;;;;14.40;79.57;100717.19;5049626;28;20028;-73
2022/09/30 10:03:00;;;;;;;7.68;2.78;;;;;;;14.77;79.68;100721.72;5067797;28;20032;-73
2022/09/30 10:05:28;;;;;;;3.85;1.77;;;;;;;14.98;78.85;100720.94;5067438;28;20036;-73
2022/09/30 10:08:20;;;;;;;5.97;2.00;;;;;;;15.13;77.80;100729.13;5067847;28;20020;-73
2022/09/30 10:10:49;;;;;;;5.13;2.38;;;;;;;15.02;77.98;100721.41;5068127;28;20565;-73
2022/09/30 10:13:22;;;;;;;10.68;2.25;;;;;;;14.95;76.99;100731.41;5049513;28;20029;-73
2022/09/30 10:15:51;;;;;;;4.05;2.22;;;;;;;14.62;78.38;100734.53;5049731;28;20028;-73
2022/09/30 10:18:22;;;;;;;10.50;2.42;;;;;;;14.77;79.07;100724.47;5050267;28;20070;-71
2022/09/30 10:20:54;;;;;;;3.10;1.95;;;;;;;14.42;79.84;100736.09;5068164;28;20025;-71
2022/09/30 10:23:28;;;;;;;10.18;2.40;;;;;;;14.39;79.59;100738.13;5049755;28;20040;-74
2022/09/30 10:25:56;;;;;;;7.22;2.15;;;;;;;14.78;79.25;100728.88;5049312;28;20033;-71
2022/09/30 10:28:24;;;;;;;5.30;2.13;;;;;;;14.86;77.20;100728.75;5049232;28;20414;-72
2022/09/30 10:31:13;;;;;;;6.55;2.00;;;;;;;14.80;77.43;100728.66;5050847;28;20013;-72
2022/09/30 10:33:47;;;;;;;13.35;2.70;;;;;;;14.80;77.71;100732.28;5066907;28;20093;-73
2022/09/30 10:36:21;;;;;;;9.43;2.35;;;;;;;14.95;76.95;100742.31;5055128;28;20021;-73
2022/09/30 10:38:55;;;;;;;9.75;3.25;;;;;;;14.90;77.23;100743.72;5067605;28;20024;-75
2022/09/30 10:41:24;;;;;;;2.78;2.20;;;;;;;15.03;77.67;100739.47;5067834;28;20029;-72
2022/09/30 10:43:53;;;;;;;11.02;3.05;;;;;;;15.38;76.95;100738.63;5049564;28;20115;-73
2022/09/30 10:46:29;;;;;;;16.33;2.40;;;;;;;15.43;76.54;100730.69;5066253;28;20032;-72
2022/09/30 10:48:56;;;;;;;7.78;3.20;;;;;;;15.19;75.50;100728.31;5065826;28;20032;-73
2022/09/30 10:51:28;;;;;;;4.72;2.28;;;;;;;15.51;73.82;100727.00;5049474;28;20016;-72
2022/09/30 10:53:54;;;;;;;3.97;2.00;;;;;;;15.69;74.54;100729.31;5049405;28;20024;-72
2022/09/30 10:56:40;;;;;;;6.75;2.00;;;;;;;15.75;74.08;100734.00;5064496;28;20024;-73
2022/09/30 10:59:18;;;;;;;4.03;2.00;;;;;;;15.76;72.52;100723.91;5049328;28;20028;-74
2022/09/30 11:01:53;;;;;;;6.50;1.55;;;;;;;15.67;72.01;100721.34;5066718;28;20017;-74
2022/09/30 11:04:36;;;;;;;6.03;2.00;;;;;;;16.22;71.25;100724.31;5040901;28;20020;-74
2022/09/30 11:07:27;;;;;;;5.13;1.58;;;;;;;16.85;69.40;100725.16;5048938;28;20077;-74
2022/09/30 11:10:01;;;;;;;3.05;1.73;;;;;;;16.59;69.35;100720.34;5048511;28;20112;-73
2022/09/30 11:12:36;;;;;;;3.65;1.98;;;;;;;16.46;69.48;100723.84;5067091;28;20063;-74
2022/09/30 11:15:11;;;;;;;5.38;2.33;;;;;;;15.98;69.80;100734.66;5049640;28;20032;-74
2022/09/30 11:17:59;;;;;;;7.72;1.90;;;;;;;16.27;69.31;100732.75;5048594;28;20054;-76
2022/09/30 11:20:33;;;;;;;4.60;1.98;;;;;;;16.45;69.01;100721.31;5066222;28;20020;-76
2022/09/30 11:23:21;;;;;;;4.45;1.63;;;;;;;15.72;70.16;100728.94;5048898;28;20036;-76
2022/09/30 11:25:56;;;;;;;5.25;1.70;;;;;;;15.81;70.96;100721.47;5047553;28;20046;-75
2022/09/30 11:28:36;;;;;;;5.82;2.22;;;;;;;15.57;69.96;100720.75;5047354;28;20028;-76
2022/09/30 11:31:22;;;;;;;4.03;1.67;;;;;;;15.67;70.36;100720.50;5064412;28;20017;-75
2022/09/30 11:33:56;;;;;;;6.85;1.77;;;;;;;15.45;69.77;100716.84;5045872;28;20100;-76
2022/09/30 11:36:33;;;;;;;4.07;1.90;;;;;;;15.23;69.35;100718.72;5065179;28;20020;-74
2022/09/30 11:39:25;;;;;;;2.83;1.33;;;;;;;15.19;70.31;100711.97;5065069;28;20038;-75